Terminal Aerodrome Forecast
Issued by NWS

Home | Current Version | Previous Version | Text Only | Print | Product List | Glossary On
Versions: 1 2 3 4 5 6 7 8 9 10 11 12 13
000
FTUS45 KBOI 191138
TAFBKE
TAF
KBKE 191138Z 1912/2012 13011KT P6SM SCT060 SCT200
     FM192300 33018G28KT P6SM BKN060 OVC200
     FM200500 33011KT P6SM SCT200=

USA.gov is the U.S. government's official web portal to all federal, state and local government web resources and services.